METAR Data
IDs: Format: Raw Decoded Include TAF

Data at: 1150 UTC 24 May 2022

KBRO 241053Z AUTO 05012KT 10SM FEW070 SCT110 23/19 A2977 RMK AO2 LTG DSNT NE SLP079 T02280194